Time;durP1;ratioP1;P1;durP2;ratioP2;P2;SDS_P1;SDS_P2;PMS_P1;PMS_P2;Temp;Humidity;BMP_temperature;BMP_pressure;BME280_temperature;BME280_humidity;BME280_pressure;Samples;Min_cycle;Max_cycle;Signal;HPM_P1;HPM_P2
2022/10/08 00:00:41;;;;;;;15.10;4.90;;;;;;;10.64;84.14;100308.78;5105980;28;20317;-67
2022/10/08 00:03:07;;;;;;;9.00;4.35;;;;;;;10.78;83.95;100322.44;5085990;28;20201;-66
2022/10/08 00:05:33;;;;;;;13.35;4.13;;;;;;;10.62;84.70;100315.75;5098506;28;20047;-66
2022/10/08 00:07:58;;;;;;;10.32;4.45;;;;;;;10.70;84.70;100321.66;5094227;28;20028;-67
2022/10/08 00:10:24;;;;;;;10.93;4.78;;;;;;;10.74;84.65;100319.91;5101548;28;20092;-67
2022/10/08 00:12:49;;;;;;;12.40;4.13;;;;;;;10.80;84.58;100322.41;5085484;28;20028;-67
2022/10/08 00:15:15;;;;;;;7.97;4.03;;;;;;;10.74;84.50;100319.91;5085046;28;20028;-67
2022/10/08 00:17:41;;;;;;;10.18;3.80;;;;;;;10.81;84.61;100330.16;5084991;28;20036;-67
2022/10/08 00:20:08;;;;;;;11.88;4.10;;;;;;;10.83;84.75;100328.44;5095132;28;20040;-68
2022/10/08 00:22:34;;;;;;;9.85;3.88;;;;;;;10.83;84.85;100324.97;5104870;28;20308;-68
2022/10/08 00:25:00;;;;;;;10.43;4.03;;;;;;;10.81;84.43;100321.53;5104633;28;20068;-68
2022/10/08 00:27:25;;;;;;;11.35;3.75;;;;;;;10.69;84.31;100291.47;5085169;28;20029;-66
2022/10/08 00:29:51;;;;;;;11.02;3.60;;;;;;;10.82;84.59;100324.13;5101168;28;20032;-67
2022/10/08 00:32:18;;;;;;;12.27;3.85;;;;;;;10.87;84.54;100324.94;5093887;28;20205;-68
2022/10/08 00:34:46;;;;;;;10.48;4.18;;;;;;;10.91;84.63;100324.88;5091801;28;20039;-67
2022/10/08 00:37:11;;;;;;;9.52;3.95;;;;;;;10.94;83.94;100324.84;5102750;28;20091;-67
2022/10/08 00:39:37;;;;;;;14.05;4.25;;;;;;;10.96;84.05;100329.13;5085218;28;20252;-68
2022/10/08 00:42:02;;;;;;;13.35;4.03;;;;;;;10.97;84.27;100328.25;5084877;28;20275;-68
2022/10/08 00:45:01;;;;;;;10.60;3.65;;;;;;;10.99;84.40;100323.91;5084915;28;20025;-68
2022/10/08 00:47:32;;;;;;;9.80;3.78;;;;;;;10.99;83.72;100321.31;5080196;28;20044;-67
2022/10/08 00:50:10;;;;;;;6.13;3.15;;;;;;;11.04;83.69;100332.50;5084418;28;20029;-68
2022/10/08 00:52:43;;;;;;;8.88;3.15;;;;;;;10.96;84.22;100305.81;5089993;28;20028;-68
2022/10/08 00:55:11;;;;;;;14.50;4.18;;;;;;;11.01;84.26;100329.06;5103239;28;20372;-68
2022/10/08 00:57:37;;;;;;;10.15;3.58;;;;;;;11.08;83.64;100319.50;5084511;28;20028;-68
2022/10/08 01:00:07;;;;;;;10.65;3.65;;;;;;;11.07;83.85;100315.19;5084073;28;20321;-66
2022/10/08 01:02:33;;;;;;;8.68;3.35;;;;;;;11.15;83.47;100329.75;5083451;28;20225;-66
2022/10/08 01:04:59;;;;;;;10.55;3.58;;;;;;;11.23;83.70;100327.06;5092809;28;20083;-67
2022/10/08 01:07:50;;;;;;;12.50;4.05;;;;;;;11.10;83.50;100323.78;5090452;28;20320;-67
2022/10/08 01:10:32;;;;;;;9.35;3.45;;;;;;;11.15;84.16;100321.13;5101933;28;20062;-67
2022/10/08 01:13:33;;;;;;;11.23;3.55;;;;;;;11.25;83.58;100322.69;5084406;28;20020;-67
2022/10/08 01:16:13;;;;;;;10.02;3.35;;;;;;;11.28;83.92;100317.47;5063206;28;20039;-67
2022/10/08 01:18:45;;;;;;;8.07;3.40;;;;;;;11.25;83.57;100324.44;5084123;28;20144;-67
2022/10/08 01:21:32;;;;;;;8.70;3.85;;;;;;;11.29;83.71;100331.31;5084087;28;20050;-68
2022/10/08 01:24:00;;;;;;;11.00;4.00;;;;;;;11.29;82.93;100321.78;5083915;28;20029;-68
2022/10/08 01:26:56;;;;;;;11.52;3.53;;;;;;;11.27;83.38;100326.13;5095871;28;20031;-68
2022/10/08 01:29:30;;;;;;;12.05;3.58;;;;;;;11.32;83.47;100320.88;5091665;28;20088;-67
2022/10/08 01:32:06;;;;;;;9.23;3.55;;;;;;;11.30;83.26;100320.03;5091550;28;20276;-68
2022/10/08 01:34:39;;;;;;;7.15;3.22;;;;;;;11.31;83.19;100326.94;5099648;28;20024;-68
2022/10/08 01:37:08;;;;;;;10.93;3.75;;;;;;;11.23;83.41;100312.34;5083053;28;20370;-68
2022/10/08 01:39:37;;;;;;;14.07;3.72;;;;;;;11.27;83.03;100333.06;5090643;28;20048;-68
2022/10/08 01:42:06;;;;;;;12.00;3.83;;;;;;;11.20;82.60;100312.41;5100725;28;20070;-68
2022/10/08 01:44:38;;;;;;;11.55;3.30;;;;;;;11.34;82.75;100332.97;5091483;28;20051;-68
2022/10/08 01:47:07;;;;;;;12.85;3.65;;;;;;;11.37;82.23;100330.31;5092735;28;20030;-67
2022/10/08 01:49:42;;;;;;;9.23;3.35;;;;;;;11.38;82.37;100328.56;5099516;28;20052;-66
2022/10/08 01:52:16;;;;;;;11.13;3.65;;;;;;;11.33;83.57;100315.69;5071161;28;20088;-67
2022/10/08 01:54:45;;;;;;;8.65;3.50;;;;;;;11.35;82.96;100324.28;5083689;28;20352;-66
2022/10/08 01:57:11;;;;;;;9.77;3.00;;;;;;;11.44;82.46;100333.66;5101622;28;20091;-67
2022/10/08 01:59:49;;;;;;;11.95;3.33;;;;;;;11.45;82.42;100332.78;5090481;28;20236;-67
2022/10/08 02:02:24;;;;;;;9.68;3.30;;;;;;;11.42;83.39;100332.00;5083350;28;20036;-67
2022/10/08 02:04:52;;;;;;;10.55;3.13;;;;;;;11.46;82.87;100331.91;5083502;28;20036;-68
2022/10/08 02:07:21;;;;;;;8.43;3.40;;;;;;;11.37;82.54;100319.06;5085331;28;20032;-68
2022/10/08 02:09:51;;;;;;;10.88;3.70;;;;;;;11.43;83.18;100336.28;5098872;28;20104;-68
2022/10/08 02:12:18;;;;;;;8.43;3.25;;;;;;;11.48;82.13;100339.69;5102156;28;20265;-68
2022/10/08 02:14:51;;;;;;;9.02;3.65;;;;;;;11.36;82.51;100327.75;5075944;28;20021;-68
2022/10/08 02:17:22;;;;;;;9.70;3.25;;;;;;;11.37;82.47;100332.91;5067662;28;20040;-68
2022/10/08 02:20:13;;;;;;;12.93;3.90;;;;;;;11.44;82.62;100336.25;5089790;28;20105;-68
2022/10/08 02:22:53;;;;;;;11.70;3.42;;;;;;;11.41;82.56;100331.13;5088536;28;20131;-68
2022/10/08 02:25:27;;;;;;;11.60;3.47;;;;;;;11.42;82.27;100338.03;5101180;28;20036;-68
2022/10/08 02:28:10;;;;;;;12.15;4.20;;;;;;;11.45;82.09;100343.16;5083031;28;20032;-68
2022/10/08 02:30:42;;;;;;;13.02;3.78;;;;;;;11.38;82.06;100342.38;5063377;28;20261;-67
2022/10/08 02:33:14;;;;;;;8.02;3.22;;;;;;;11.47;82.68;100344.03;5080148;28;20040;-67
2022/10/08 02:35:50;;;;;;;10.13;3.35;;;;;;;11.50;82.43;100337.91;5096494;28;20332;-67
2022/10/08 02:38:21;;;;;;;12.25;3.47;;;;;;;11.52;81.88;100346.53;5093081;28;20225;-67
2022/10/08 02:40:51;;;;;;;13.70;4.20;;;;;;;11.52;81.44;100349.13;5093468;28;20039;-67
2022/10/08 02:43:21;;;;;;;9.55;3.72;;;;;;;11.43;82.29;100337.16;5105689;28;20055;-66
2022/10/08 02:45:55;;;;;;;7.05;3.50;;;;;;;11.51;81.88;100345.66;5086971;28;20029;-67
2022/10/08 02:48:31;;;;;;;8.90;3.28;;;;;;;11.53;81.83;100345.66;5106099;28;20324;-67
2022/10/08 02:51:04;;;;;;;13.80;4.13;;;;;;;11.53;81.83;100340.47;5091377;28;20043;-66
2022/10/08 02:53:31;;;;;;;12.95;4.25;;;;;;;11.50;81.69;100343.97;5098757;28;20086;-67
2022/10/08 02:56:04;;;;;;;10.57;4.05;;;;;;;11.56;81.61;100348.22;5099555;28;20344;-67
2022/10/08 02:58:30;;;;;;;12.35;3.88;;;;;;;11.37;81.95;100311.28;5090173;28;20051;-67
2022/10/08 03:01:05;;;;;;;12.10;4.18;;;;;;;11.43;81.73;100326.78;5107121;28;20031;-67
2022/10/08 03:03:36;;;;;;;9.52;3.42;;;;;;;11.50;82.08;100328.41;5065757;28;20243;-67
2022/10/08 03:06:07;;;;;;;8.88;3.83;;;;;;;11.50;81.71;100330.13;5093387;28;20031;-68
2022/10/08 03:08:37;;;;;;;12.77;3.95;;;;;;;11.46;81.57;100323.25;5098884;28;20081;-68
2022/10/08 03:11:05;;;;;;;10.80;4.40;;;;;;;11.55;81.72;100336.09;5097618;28;20017;-68
2022/10/08 03:13:35;;;;;;;8.85;3.50;;;;;;;11.35;81.77;100316.50;5088710;28;20027;-66
2022/10/08 03:16:07;;;;;;;10.20;3.50;;;;;;;11.47;81.86;100318.09;5106620;28;20024;-66
2022/10/08 03:18:36;;;;;;;9.70;3.90;;;;;;;11.58;81.27;100331.72;5066774;28;20041;-67
2022/10/08 03:21:02;;;;;;;10.68;3.35;;;;;;;11.58;82.06;100339.50;5098247;28;20028;-66
2022/10/08 03:23:28;;;;;;;11.48;3.55;;;;;;;11.48;81.95;100329.31;5104261;28;20027;-68
2022/10/08 03:25:53;;;;;;;10.75;3.45;;;;;;;11.52;82.41;100331.81;5099781;28;20086;-68
2022/10/08 03:28:19;;;;;;;8.85;3.95;;;;;;;11.50;82.00;100336.19;5086349;28;20017;-70
2022/10/08 03:30:46;;;;;;;12.23;3.70;;;;;;;11.53;81.69;100336.13;5085847;28;20305;-69
2022/10/08 03:33:11;;;;;;;9.18;3.35;;;;;;;11.60;81.43;100338.63;5086146;28;20074;-68
2022/10/08 03:35:44;;;;;;;7.25;3.55;;;;;;;11.50;81.99;100324.94;5085648;28;20021;-68
2022/10/08 03:38:10;;;;;;;10.57;3.25;;;;;;;11.61;81.70;100342.94;5092538;28;20028;-68
2022/10/08 03:40:35;;;;;;;11.63;3.60;;;;;;;11.61;80.84;100345.53;5089774;28;20031;-68
2022/10/08 03:43:01;;;;;;;10.10;4.10;;;;;;;11.58;81.07;100346.44;5105880;28;20477;-68
2022/10/08 03:45:26;;;;;;;8.25;3.05;;;;;;;11.58;81.16;100336.91;5086610;28;20032;-67
2022/10/08 03:47:52;;;;;;;10.82;3.70;;;;;;;11.46;81.34;100342.28;5090521;28;20327;-68
2022/10/08 03:50:20;;;;;;;13.02;3.47;;;;;;;11.45;81.38;100335.38;5084518;28;20127;-68
2022/10/08 03:52:45;;;;;;;9.50;3.15;;;;;;;11.50;81.35;100336.19;5100862;28;20028;-68
2022/10/08 03:55:11;;;;;;;6.93;3.03;;;;;;;11.63;80.83;100348.94;5085869;28;20066;-67
2022/10/08 03:57:37;;;;;;;8.68;3.33;;;;;;;11.66;81.23;100342.00;5105855;28;20047;-68
2022/10/08 04:00:03;;;;;;;9.60;3.47;;;;;;;11.69;81.08;100347.13;5089675;28;20028;-69
2022/10/08 04:02:31;;;;;;;6.47;3.20;;;;;;;11.68;81.12;100347.16;5090529;28;20087;-69
2022/10/08 04:04:57;;;;;;;9.93;3.35;;;;;;;11.70;81.01;100337.59;5092289;28;20073;-67
2022/10/08 04:07:22;;;;;;;12.07;4.03;;;;;;;11.68;81.33;100340.22;5091272;28;20024;-67
2022/10/08 04:09:48;;;;;;;10.07;3.65;;;;;;;11.67;81.47;100340.25;5105676;28;20028;-67
2022/10/08 04:12:14;;;;;;;10.85;3.47;;;;;;;11.61;80.69;100338.59;5086998;28;20032;-67
2022/10/08 04:14:39;;;;;;;10.07;3.72;;;;;;;11.70;80.82;100338.47;5086194;28;20042;-67
2022/10/08 04:17:05;;;;;;;7.63;3.70;;;;;;;11.69;81.42;100336.75;5072858;28;20036;-67
2022/10/08 04:19:31;;;;;;;11.60;3.83;;;;;;;11.55;80.52;100313.59;5085021;28;20040;-67
2022/10/08 04:21:57;;;;;;;13.57;4.07;;;;;;;11.78;80.58;100342.69;5084699;28;20086;-67
2022/10/08 04:24:22;;;;;;;9.18;2.92;;;;;;;11.78;80.62;100340.09;5085282;28;20024;-67
2022/10/08 04:26:48;;;;;;;13.35;3.45;;;;;;;11.77;79.76;100347.00;5098821;28;20055;-67
2022/10/08 04:29:13;;;;;;;11.73;3.90;;;;;;;11.73;79.69;100351.41;5096594;28;20220;-67
2022/10/08 04:31:39;;;;;;;11.32;3.55;;;;;;;11.74;80.45;100337.56;5088907;28;20028;-67
2022/10/08 04:34:05;;;;;;;12.40;4.03;;;;;;;11.77;80.70;100352.19;5105224;28;20039;-67
2022/10/08 04:36:31;;;;;;;12.20;4.18;;;;;;;11.74;80.82;100347.06;5084453;28;20048;-68
2022/10/08 04:38:57;;;;;;;10.82;3.80;;;;;;;11.77;80.40;100344.41;5082887;28;20028;-68
2022/10/08 04:41:25;;;;;;;11.00;3.35;;;;;;;11.50;80.78;100306.78;5094480;28;20028;-67
2022/10/08 04:43:51;;;;;;;12.68;3.97;;;;;;;11.83;80.62;100359.03;5099644;28;20028;-66
2022/10/08 04:46:19;;;;;;;10.82;3.50;;;;;;;11.85;80.35;100352.94;5085081;28;20032;-67
2022/10/08 04:48:47;;;;;;;10.98;3.63;;;;;;;11.88;80.66;100365.84;5101754;28;20023;-67
2022/10/08 04:51:13;;;;;;;9.15;3.22;;;;;;;11.86;80.35;100353.81;5084010;28;20051;-68
2022/10/08 04:53:39;;;;;;;11.18;3.47;;;;;;;11.92;79.98;100351.09;5084136;28;20024;-67
2022/10/08 04:56:25;;;;;;;8.07;3.35;;;;;;;11.81;79.77;100353.84;5083761;28;20085;-68
2022/10/08 04:58:53;;;;;;;8.20;3.15;;;;;;;11.95;80.47;100363.22;5078606;28;20021;-67
2022/10/08 05:01:20;;;;;;;8.10;3.30;;;;;;;12.01;79.66;100368.28;5083729;28;20052;-66
2022/10/08 05:03:48;;;;;;;11.70;4.03;;;;;;;11.96;79.55;100349.38;5084191;28;20036;-67
2022/10/08 05:06:16;;;;;;;9.05;3.65;;;;;;;12.06;79.67;100363.91;5084848;28;20029;-67
2022/10/08 05:08:43;;;;;;;10.27;3.35;;;;;;;12.04;80.30;100366.53;5083771;28;20029;-67
2022/10/08 05:11:09;;;;;;;10.02;3.97;;;;;;;11.96;79.77;100370.13;5081104;28;20324;-67
2022/10/08 05:13:35;;;;;;;8.35;3.30;;;;;;;11.87;79.09;100371.94;5086647;28;20040;-67
2022/10/08 05:16:09;;;;;;;8.60;3.38;;;;;;;11.96;79.86;100370.13;5103658;28;20171;-67
2022/10/08 05:18:36;;;;;;;10.05;3.95;;;;;;;12.04;79.67;100373.44;5084993;28;20047;-67
2022/10/08 05:21:03;;;;;;;7.15;3.05;;;;;;;12.08;79.87;100370.78;5097683;28;20035;-67
2022/10/08 05:23:29;;;;;;;8.23;3.40;;;;;;;11.91;79.36;100373.63;5100817;28;20246;-67
2022/10/08 05:25:55;;;;;;;9.75;3.67;;;;;;;12.01;79.77;100370.91;5086393;28;20035;-67
2022/10/08 05:28:20;;;;;;;10.98;3.53;;;;;;;12.06;79.39;100375.13;5083565;28;20032;-67
2022/10/08 05:30:46;;;;;;;9.85;3.35;;;;;;;12.00;79.07;100371.78;5083516;28;20031;-68
2022/10/08 05:33:11;;;;;;;10.48;3.45;;;;;;;11.98;79.13;100364.00;5086164;28;20118;-68
2022/10/08 05:35:37;;;;;;;8.50;3.28;;;;;;;12.04;79.53;100360.47;5083616;28;20029;-67
2022/10/08 05:38:03;;;;;;;11.85;3.28;;;;;;;12.03;78.77;100374.34;5089234;28;20061;-67
2022/10/08 05:40:29;;;;;;;8.30;3.17;;;;;;;12.05;78.71;100378.59;5085750;28;20088;-66
2022/10/08 05:42:55;;;;;;;10.98;3.20;;;;;;;12.13;78.82;100386.28;5090880;28;20036;-67
2022/10/08 05:45:21;;;;;;;9.02;3.28;;;;;;;12.20;78.46;100380.09;5075915;28;20021;-66
2022/10/08 05:47:47;;;;;;;7.47;3.15;;;;;;;12.17;79.50;100374.97;5066123;28;20021;-67
2022/10/08 05:50:14;;;;;;;7.53;3.45;;;;;;;12.21;78.14;100381.81;5078795;28;20100;-67
2022/10/08 05:52:40;;;;;;;9.82;3.78;;;;;;;12.21;78.98;100378.34;5071914;28;20028;-66
2022/10/08 05:55:06;;;;;;;10.93;3.00;;;;;;;12.29;78.52;100381.69;5095538;28;20084;-67
2022/10/08 05:57:32;;;;;;;12.88;3.50;;;;;;;12.17;78.55;100376.69;5102257;28;20051;-67
2022/10/08 05:59:58;;;;;;;7.97;3.35;;;;;;;12.11;78.38;100369.84;5087986;28;20069;-67
2022/10/08 06:02:23;;;;;;;13.57;3.53;;;;;;;12.13;78.55;100381.09;5092770;28;20016;-66
2022/10/08 06:04:49;;;;;;;11.27;3.42;;;;;;;12.22;78.42;100380.91;5098211;28;20065;-67
2022/10/08 06:07:15;;;;;;;9.40;3.83;;;;;;;12.11;77.79;100382.84;5066851;28;20021;-65
2022/10/08 06:09:41;;;;;;;8.07;3.45;;;;;;;12.19;78.96;100375.78;5068394;28;20028;-66
2022/10/08 06:12:08;;;;;;;10.77;3.63;;;;;;;12.21;78.50;100374.03;5092802;28;20074;-66
2022/10/08 06:14:34;;;;;;;8.40;3.28;;;;;;;12.20;77.63;100374.91;5091511;28;20028;-66
2022/10/08 06:17:00;;;;;;;9.35;3.80;;;;;;;12.29;78.36;100375.66;5083007;28;20047;-66
2022/10/08 06:19:26;;;;;;;10.95;3.85;;;;;;;12.34;78.03;100373.81;5083842;28;20028;-67
2022/10/08 06:21:51;;;;;;;11.88;4.43;;;;;;;12.39;78.42;100388.41;5103224;28;20078;-67
2022/10/08 06:24:17;;;;;;;11.80;3.92;;;;;;;12.34;78.07;100384.19;5089970;28;20020;-66
2022/10/08 06:26:43;;;;;;;9.52;3.42;;;;;;;12.44;77.21;100380.53;5086232;28;20081;-67
2022/10/08 06:29:15;;;;;;;11.00;3.67;;;;;;;12.40;77.63;100384.09;5095059;28;20020;-68
2022/10/08 06:31:41;;;;;;;11.07;3.30;;;;;;;12.50;78.22;100385.66;5082991;28;20331;-69
2022/10/08 06:34:07;;;;;;;13.38;3.50;;;;;;;12.52;76.76;100383.88;5082918;28;20028;-68
2022/10/08 06:36:35;;;;;;;10.95;3.53;;;;;;;12.55;77.03;100380.34;5101482;28;20039;-69
2022/10/08 06:39:06;;;;;;;10.73;3.58;;;;;;;12.66;76.77;100393.16;5088607;28;20321;-68
2022/10/08 06:41:33;;;;;;;10.20;3.85;;;;;;;12.75;76.46;100387.78;5083098;28;20048;-68
2022/10/08 06:44:03;;;;;;;9.43;3.45;;;;;;;12.73;75.92;100385.22;5082638;28;20344;-68
2022/10/08 06:46:31;;;;;;;11.73;3.45;;;;;;;12.83;75.63;100391.09;5081527;28;20033;-67
2022/10/08 06:48:57;;;;;;;7.85;3.58;;;;;;;12.95;75.21;100387.38;5082728;28;20313;-66
2022/10/08 06:51:23;;;;;;;15.00;4.00;;;;;;;12.95;75.32;100382.19;5082409;28;20028;-67
2022/10/08 06:53:55;;;;;;;11.77;3.75;;;;;;;13.02;73.52;100373.38;5082014;28;20028;-67
2022/10/08 06:56:23;;;;;;;10.70;4.00;;;;;;;13.16;74.53;100380.91;5082798;28;20028;-66
2022/10/08 06:58:49;;;;;;;9.30;3.53;;;;;;;13.17;73.77;100389.53;5083715;28;20589;-67
2022/10/08 07:01:17;;;;;;;8.77;3.30;;;;;;;13.25;73.18;100387.66;5103408;28;20028;-66
2022/10/08 07:03:42;;;;;;;10.93;4.03;;;;;;;13.32;73.56;100384.03;5082894;28;20020;-65
2022/10/08 07:06:10;;;;;;;6.00;3.25;;;;;;;13.35;71.95;100372.75;5087062;28;20035;-65
2022/10/08 07:08:37;;;;;;;8.30;3.30;;;;;;;13.51;71.57;100379.34;5083917;28;20083;-66
2022/10/08 07:11:07;;;;;;;9.90;3.38;;;;;;;13.56;72.03;100387.88;5084147;28;20312;-66
2022/10/08 07:13:33;;;;;;;11.48;3.78;;;;;;;13.46;70.02;100375.97;5083603;28;20301;-66
2022/10/08 07:16:12;;;;;;;8.55;3.28;;;;;;;13.58;70.30;100367.00;5082359;28;20021;-66
2022/10/08 07:18:39;;;;;;;9.15;3.00;;;;;;;13.66;69.83;100382.47;5082259;28;20055;-66
2022/10/08 07:21:06;;;;;;;12.77;3.67;;;;;;;13.79;69.72;100383.88;5082881;28;20055;-67
2022/10/08 07:23:32;;;;;;;8.07;3.20;;;;;;;13.82;69.96;100370.78;5082143;28;20027;-67
2022/10/08 07:26:05;;;;;;;7.35;3.30;;;;;;;13.92;69.38;100387.06;5084995;28;20028;-67
2022/10/08 07:28:34;;;;;;;7.07;3.33;;;;;;;14.05;68.66;100366.78;5087320;28;20105;-66
2022/10/08 07:31:05;;;;;;;8.80;3.25;;;;;;;14.28;67.33;100377.50;5106357;28;20023;-66
2022/10/08 07:33:32;;;;;;;9.18;3.25;;;;;;;14.41;67.09;100364.13;5086023;28;20082;-66
2022/10/08 07:36:09;;;;;;;11.13;3.25;;;;;;;14.38;66.66;100364.22;5085644;28;20103;-67
2022/10/08 07:38:35;;;;;;;14.15;3.70;;;;;;;14.44;66.56;100366.66;5086500;28;20024;-66
2022/10/08 07:41:00;;;;;;;8.85;3.25;;;;;;;14.50;67.12;100375.16;5085359;28;20327;-66
2022/10/08 07:43:26;;;;;;;8.43;2.83;;;;;;;14.59;66.24;100374.09;5084411;28;20056;-68
2022/10/08 07:45:52;;;;;;;10.40;3.42;;;;;;;14.57;65.63;100369.81;5083668;28;20017;-67
2022/10/08 07:48:18;;;;;;;9.90;2.75;;;;;;;14.71;66.72;100372.91;5084214;28;20032;-66
2022/10/08 07:50:44;;;;;;;10.65;3.13;;;;;;;14.75;66.43;100368.47;5086236;28;20021;-66
2022/10/08 07:53:10;;;;;;;10.57;3.22;;;;;;;14.78;65.04;100365.78;5091820;28;20039;-65
2022/10/08 07:55:36;;;;;;;8.18;3.28;;;;;;;14.83;64.80;100361.28;5095322;28;20063;-66
2022/10/08 07:58:01;;;;;;;8.68;2.90;;;;;;;14.93;65.37;100354.91;5084914;28;20025;-66
2022/10/08 08:00:27;;;;;;;9.80;3.28;;;;;;;14.92;64.58;100354.94;5083609;28;20020;-67
2022/10/08 08:02:53;;;;;;;9.27;2.70;;;;;;;14.88;63.19;100351.59;5086110;28;20027;-66
2022/10/08 08:05:19;;;;;;;13.85;3.35;;;;;;;14.95;63.71;100354.84;5085949;28;20024;-65
2022/10/08 08:07:44;;;;;;;7.10;2.42;;;;;;;15.01;63.50;100355.53;5086215;28;20020;-66
2022/10/08 08:10:10;;;;;;;12.93;3.33;;;;;;;15.09;62.41;100351.84;5084835;28;20036;-66
2022/10/08 08:12:36;;;;;;;9.00;3.05;;;;;;;15.13;62.96;100343.88;5089581;28;20032;-66
2022/10/08 08:15:02;;;;;;;9.18;3.20;;;;;;;15.32;62.75;100345.94;5081873;28;20021;-67
2022/10/08 08:17:29;;;;;;;6.18;2.60;;;;;;;15.42;61.53;100338.69;5084962;28;20063;-67
2022/10/08 08:19:55;;;;;;;8.32;2.88;;;;;;;15.54;62.24;100338.31;5084565;28;20133;-67
2022/10/08 08:22:21;;;;;;;11.23;3.03;;;;;;;15.77;62.54;100334.97;5084899;28;20418;-66
2022/10/08 08:24:46;;;;;;;10.23;4.50;;;;;;;15.86;61.00;100342.53;5105145;28;20026;-66
2022/10/08 08:27:12;;;;;;;11.75;2.95;;;;;;;16.05;59.80;100337.56;5090566;28;20028;-66
2022/10/08 08:29:38;;;;;;;5.70;2.05;;;;;;;16.30;60.02;100328.03;5093530;28;20046;-66
2022/10/08 08:32:04;;;;;;;9.20;3.45;;;;;;;16.23;58.86;100337.81;5095770;28;20066;-66
2022/10/08 08:34:30;;;;;;;7.35;2.90;;;;;;;16.64;57.34;100338.13;5084697;28;20029;-67
2022/10/08 08:36:58;;;;;;;8.57;2.65;;;;;;;16.91;56.70;100320.59;5084475;28;20032;-66
2022/10/08 08:39:26;;;;;;;7.20;2.53;;;;;;;16.69;56.44;100323.13;5089116;28;20035;-67
2022/10/08 08:42:32;;;;;;;7.60;2.88;;;;;;;16.98;55.86;100334.31;5085462;28;20084;-66
2022/10/08 08:45:09;;;;;;;11.77;4.18;;;;;;;16.73;56.72;100322.13;5090744;28;20031;-66
2022/10/08 08:47:54;;;;;;;9.43;3.72;;;;;;;17.32;55.31;100313.84;5082579;28;20082;-66
2022/10/08 08:50:27;;;;;;;9.15;2.58;;;;;;;17.86;54.71;100316.94;5083453;28;20077;-68
2022/10/08 08:52:54;;;;;;;8.25;2.50;;;;;;;18.15;52.46;100320.97;5084277;28;20049;-66
2022/10/08 08:55:40;;;;;;;10.27;2.67;;;;;;;17.99;51.44;100318.16;5084269;28;20118;-67
2022/10/08 08:58:32;;;;;;;6.45;2.38;;;;;;;17.83;52.50;100327.50;5083016;28;20036;-67
2022/10/08 09:01:12;;;;;;;6.22;2.65;;;;;;;17.49;53.19;100310.56;5080739;28;20027;-67
2022/10/08 09:03:51;;;;;;;7.78;2.28;;;;;;;17.20;53.51;100320.41;5081979;28;20036;-66
2022/10/08 09:06:21;;;;;;;6.03;2.30;;;;;;;17.89;53.26;100319.41;5084155;28;20028;-65
2022/10/08 09:09:15;;;;;;;7.82;2.53;;;;;;;18.38;52.12;100298.13;5094035;28;20092;-66
2022/10/08 09:11:42;;;;;;;10.68;2.75;;;;;;;18.29;51.52;100304.66;5094797;28;20081;-66
2022/10/08 09:14:09;;;;;;;9.30;2.72;;;;;;;18.46;52.61;100303.91;5084005;28;20096;-66
2022/10/08 09:16:35;;;;;;;9.25;2.55;;;;;;;18.17;52.57;100297.28;5083873;28;20023;-66
2022/10/08 09:19:01;;;;;;;9.82;2.80;;;;;;;17.80;50.48;100296.19;5084042;28;20044;-66
2022/10/08 09:21:30;;;;;;;10.70;2.78;;;;;;;17.31;51.75;100280.72;5099403;28;20376;-67
2022/10/08 09:23:56;;;;;;;13.05;2.83;;;;;;;17.02;52.20;100290.56;5098241;28;20028;-67
2022/10/08 09:26:34;;;;;;;6.63;2.20;;;;;;;16.73;53.31;100272.41;5102654;28;20324;-67
2022/10/08 09:29:02;;;;;;;9.57;2.80;;;;;;;16.53;54.11;100277.53;5075448;28;20032;-66
2022/10/08 09:31:37;;;;;;;11.68;3.03;;;;;;;16.47;54.50;100272.53;5083818;28;20097;-66
2022/10/08 09:34:09;;;;;;;6.90;2.47;;;;;;;16.12;55.13;100287.69;5063728;28;20036;-67
2022/10/08 09:36:51;;;;;;;6.88;2.55;;;;;;;16.03;55.35;100279.28;5097854;28;20024;-66
2022/10/08 09:39:22;;;;;;;5.65;2.55;;;;;;;16.13;56.52;100278.94;5088758;28;20030;-66
2022/10/08 09:42:06;;;;;;;5.45;2.20;;;;;;;15.97;55.95;100260.34;5083569;28;20032;-66
2022/10/08 09:45:02;;;;;;;8.07;2.38;;;;;;;16.08;56.63;100270.44;5083734;28;20025;-66
2022/10/08 09:47:29;;;;;;;11.45;3.22;;;;;;;15.75;55.88;100265.41;5090813;28;20044;-66
2022/10/08 09:50:04;;;;;;;7.18;2.15;;;;;;;15.85;56.23;100270.31;5100355;28;20067;-66
2022/10/08 09:52:30;;;;;;;7.72;2.28;;;;;;;15.84;55.94;100271.19;5083899;28;20051;-66
2022/10/08 09:54:57;;;;;;;8.98;2.85;;;;;;;15.64;56.09;100261.41;5103565;28;20142;-67
2022/10/08 09:57:23;;;;;;;7.80;2.50;;;;;;;15.64;55.69;100255.31;5088011;28;20031;-66
2022/10/08 09:59:55;;;;;;;10.02;2.85;;;;;;;15.76;56.27;100248.84;5094170;28;20308;-66
2022/10/08 10:02:36;;;;;;;9.07;3.13;;;;;;;15.64;55.67;100243.13;5095614;28;20237;-65
2022/10/08 10:05:05;;;;;;;10.13;2.72;;;;;;;15.70;55.53;100242.94;5083215;28;20316;-67
2022/10/08 10:07:43;;;;;;;5.25;2.17;;;;;;;15.75;55.35;100239.28;5083016;28;20320;-66
2022/10/08 10:10:26;;;;;;;8.73;2.50;;;;;;;15.61;55.33;100226.72;5063133;28;20040;-66
2022/10/08 10:13:13;;;;;;;8.13;3.97;;;;;;;15.66;56.33;100230.88;5100282;28;20228;-66
2022/10/08 10:15:44;;;;;;;6.88;2.80;;;;;;;15.83;54.97;100226.84;5077521;28;20290;-66
2022/10/08 10:18:09;;;;;;;7.78;2.58;;;;;;;15.95;55.76;100229.06;5079957;28;20052;-65
2022/10/08 10:21:06;;;;;;;7.10;2.58;;;;;;;16.02;55.40;100225.31;5091796;28;20091;-67
2022/10/08 10:23:49;;;;;;;11.40;2.78;;;;;;;15.95;54.70;100220.38;5095640;28;20032;-67
2022/10/08 10:26:21;;;;;;;6.43;2.97;;;;;;;15.93;55.00;100196.88;5097529;28;20032;-68
2022/10/08 10:28:55;;;;;;;6.93;2.55;;;;;;;15.88;54.86;100191.84;5085022;28;20240;-68
2022/10/08 10:31:34;;;;;;;6.70;2.60;;;;;;;16.04;55.20;100206.97;5091672;28;20031;-68
2022/10/08 10:34:27;;;;;;;7.28;2.40;;;;;;;16.10;53.30;100205.91;5084635;28;20097;-69
2022/10/08 10:36:57;;;;;;;9.02;2.50;;;;;;;16.19;53.55;100205.59;5081705;28;20044;-69
2022/10/08 10:39:41;;;;;;;7.97;2.80;;;;;;;16.27;54.20;100211.34;5086256;28;20386;-69
2022/10/08 10:42:36;;;;;;;8.07;2.90;;;;;;;16.38;53.03;100196.13;5095618;28;20040;-69
2022/10/08 10:45:23;;;;;;;5.90;2.35;;;;;;;16.17;51.94;100179.47;5091205;28;20034;-68
2022/10/08 10:47:52;;;;;;;7.65;2.35;;;;;;;16.01;52.61;100187.03;5093094;28;20024;-67
2022/10/08 10:50:56;;;;;;;7.80;3.00;;;;;;;16.28;52.65;100184.31;5096222;28;20036;-67
2022/10/08 10:53:56;;;;;;;6.32;2.65;;;;;;;16.16;52.46;100195.22;5088763;28;20252;-67
2022/10/08 10:56:24;;;;;;;7.10;2.42;;;;;;;16.14;53.16;100170.91;5096362;28;20336;-68
2022/10/08 10:59:17;;;;;;;7.57;2.70;;;;;;;16.24;54.37;100180.09;5084033;28;20035;-68
2022/10/08 11:02:13;;;;;;;10.27;2.67;;;;;;;16.07;52.96;100169.44;5085220;28;20035;-69
2022/10/08 11:04:57;;;;;;;11.27;2.80;;;;;;;15.99;52.52;100172.31;5095530;28;20032;-68
2022/10/08 11:07:28;;;;;;;7.75;2.45;;;;;;;16.05;52.59;100179.94;5089390;28;20024;-69
2022/10/08 11:10:09;;;;;;;6.85;2.67;;;;;;;16.04;52.32;100176.47;5086029;28;20020;-69
2022/10/08 11:12:50;;;;;;;8.00;2.95;;;;;;;16.09;52.93;100180.66;5084895;28;20049;-68
2022/10/08 11:15:39;;;;;;;7.03;3.17;;;;;;;16.18;53.74;100170.72;5083558;28;20204;-68
2022/10/08 11:18:10;;;;;;;9.57;2.85;;;;;;;16.16;53.12;100174.31;5082345;28;20036;-69
2022/10/08 11:20:39;;;;;;;9.82;2.72;;;;;;;16.26;53.27;100160.00;5085833;28;20048;-69
2022/10/08 11:23:13;;;;;;;12.23;3.33;;;;;;;16.21;53.11;100162.78;5082947;28;20024;-68
2022/10/08 11:25:59;;;;;;;6.28;3.10;;;;;;;16.11;53.65;100156.19;5085752;28;20041;-68
2022/10/08 11:28:28;;;;;;;7.10;2.50;;;;;;;16.19;53.81;100158.53;5088712;28;20217;-68
2022/10/08 11:30:56;;;;;;;6.95;2.45;;;;;;;16.16;54.36;100162.13;5084343;28;20224;-67
2022/10/08 11:33:23;;;;;;;11.80;3.35;;;;;;;16.15;54.33;100151.72;5084347;28;20056;-68
2022/10/08 11:36:17;;;;;;;10.32;2.95;;;;;;;16.23;54.17;100144.41;5095208;28;20088;-69
2022/10/08 11:38:58;;;;;;;7.55;2.70;;;;;;;16.25;54.46;100141.75;5085124;28;20092;-68